Time;durP1;ratioP1;P1;durP2;ratioP2;P2;SDS_P1;SDS_P2;PMS_P1;PMS_P2;Temp;Humidity;BMP_temperature;BMP_pressure;BME280_temperature;BME280_humidity;BME280_pressure;Samples;Min_cycle;Max_cycle;Signal;HPM_P1;HPM_P2
2021/12/23 06:44:41;;;;;;;28.63;13.90;;;-3.50;99.90;;;;;;4794298;29;20248;-96
2021/12/23 06:47:10;;;;;;;26.08;13.52;;;-3.50;99.90;;;;;;4803251;29;20302;-95
2021/12/23 06:49:39;;;;;;;25.70;13.98;;;-3.60;99.90;;;;;;4791614;29;20260;-95
2021/12/23 06:52:08;;;;;;;28.50;15.18;;;-3.50;99.90;;;;;;4797191;29;20239;-95
2021/12/23 06:54:34;;;;;;;28.08;15.45;;;-3.60;99.90;;;;;;4773991;29;20207;-94
2021/12/23 06:57:02;;;;;;;31.43;15.33;;;-3.60;99.90;;;;;;4776406;29;20215;-95
2021/12/23 06:59:33;;;;;;;26.35;14.52;;;-3.50;99.90;;;;;;4773338;29;20986;-95
2021/12/23 07:02:19;;;;;;;30.08;15.43;;;-3.50;99.90;;;;;;4777116;29;20208;-95
2021/12/23 07:17:29;;;;;;;31.45;16.10;;;-3.50;99.90;;;;;;4816619;24;20250;-94
2021/12/23 07:20:00;;;;;;;25.30;13.45;;;-3.40;99.90;;;;;;4776448;29;20214;-92
2021/12/23 07:23:11;;;;;;;;;;;;;;;;;;;;;
2021/12/23 07:26:16;;;;;;;;;;;;;;;;;;;;;
2021/12/23 07:29:03;;;;;;;29.33;15.90;;;-3.30;99.90;;;;;;4792078;29;20831;-95
2021/12/23 07:31:55;;;;;;;;;;;;;;;;;;;;;
2021/12/23 07:34:39;;;;;;;32.88;17.33;;;-3.20;99.90;;;;;;4798031;29;20208;-95
2021/12/23 07:37:41;;;;;;;;;;;;;;;;;;;;;
2021/12/23 07:40:08;;;;;;;28.83;15.40;;;-3.20;99.90;;;;;;4773713;29;20238;-94
2021/12/23 07:42:57;;;;;;;27.58;15.13;;;-3.20;99.90;;;;;;4768763;29;20216;-94
2021/12/23 07:48:11;;;;;;;28.88;15.50;;;-3.10;99.90;;;;;;4791021;29;20789;-94
2021/12/23 07:51:32;;;;;;;21.55;12.63;;;-3.00;99.90;;;;;;4771219;29;20690;-94
2021/12/23 07:54:08;;;;;;;;;;;;;;;;;;;;;
2021/12/23 07:56:37;;;;;;;24.35;15.73;;;-2.80;99.90;;;;;;4783656;29;20215;-92
2021/12/23 07:59:03;;;;;;;31.48;15.60;;;-2.80;99.90;;;;;;4776929;29;20195;-95
2021/12/23 08:01:34;;;;;;;25.90;14.73;;;-2.80;99.90;;;;;;4774613;29;20289;-94
2021/12/23 08:03:59;;;;;;;31.65;16.92;;;-2.80;99.90;;;;;;4770695;29;20200;-95
2021/12/23 08:06:28;;;;;;;32.73;17.10;;;-2.70;99.90;;;;;;4777233;29;20244;-94
2021/12/23 08:08:54;;;;;;;27.27;16.25;;;-2.60;99.90;;;;;;4776548;29;20243;-93
2021/12/23 08:11:25;;;;;;;29.33;17.40;;;-2.60;99.90;;;;;;4771939;29;20995;-94
2021/12/23 08:13:53;;;;;;;24.15;14.30;;;-2.50;99.90;;;;;;4792339;29;20537;-95
2021/12/23 08:16:19;;;;;;;33.30;17.73;;;-2.50;99.90;;;;;;4778084;29;20214;-95
2021/12/23 08:18:55;;;;;;;30.90;17.07;;;-2.40;99.90;;;;;;4770880;29;20199;-95
2021/12/23 08:21:23;;;;;;;27.98;16.00;;;-2.30;99.90;;;;;;4772432;29;20196;-95
2021/12/23 08:23:52;;;;;;;30.58;17.88;;;-2.30;99.90;;;;;;4774435;29;20223;-93
2021/12/23 08:26:27;;;;;;;29.55;16.08;;;-2.20;99.90;;;;;;4781090;29;20209;-93
2021/12/23 08:29:00;;;;;;;25.55;15.05;;;-2.10;99.90;;;;;;4778353;29;20234;-95
2021/12/23 08:31:29;;;;;;;29.17;14.87;;;-2.00;99.90;;;;;;4776336;29;20222;-96
2021/12/23 08:33:57;;;;;;;29.67;17.40;;;-1.80;99.90;;;;;;4779908;29;20464;-94
2021/12/23 08:36:24;;;;;;;26.00;15.80;;;-1.50;99.90;;;;;;4770433;29;20517;-93
2021/12/23 08:38:50;;;;;;;25.97;16.87;;;-1.30;99.90;;;;;;4776373;29;21217;-90
2021/12/23 08:41:16;;;;;;;26.10;15.33;;;-1.20;99.90;;;;;;4772823;29;21115;-95
2021/12/23 08:46:37;;;;;;;25.37;14.93;;;-0.90;99.90;;;;;;4789032;29;20617;-93
2021/12/23 08:49:04;;;;;;;25.10;14.50;;;-1.00;99.90;;;;;;4768796;29;21103;-94
2021/12/23 08:51:32;;;;;;;25.40;14.77;;;-1.10;99.90;;;;;;4772388;29;20460;-93
2021/12/23 08:53:58;;;;;;;25.90;14.97;;;-1.10;99.90;;;;;;4782238;29;20472;-93
2021/12/23 08:56:43;;;;;;;29.23;16.57;;;-1.20;99.90;;;;;;4766188;29;21269;-94
2021/12/23 08:59:09;;;;;;;26.27;15.13;;;-1.30;99.90;;;;;;4766939;29;20216;-91
2021/12/23 09:01:35;;;;;;;31.80;14.77;;;-1.30;99.90;;;;;;4770053;29;20481;-91
2021/12/23 09:04:03;;;;;;;28.93;15.83;;;-1.20;99.90;;;;;;4764019;29;20497;-91
2021/12/23 09:06:32;;;;;;;27.77;15.30;;;-1.30;99.90;;;;;;4779929;29;20743;-89
2021/12/23 09:09:11;;;;;;;29.50;14.67;;;-1.20;99.90;;;;;;4788599;29;20537;-92
2021/12/23 09:11:37;;;;;;;24.63;14.90;;;-1.30;99.90;;;;;;4771103;29;20787;-94
2021/12/23 09:14:03;;;;;;;25.87;14.90;;;-1.20;99.90;;;;;;4768025;29;21627;-93
2021/12/23 09:16:29;;;;;;;29.10;16.30;;;-1.10;99.90;;;;;;4772961;29;20469;-93
2021/12/23 09:18:54;;;;;;;24.73;15.47;;;-1.00;99.90;;;;;;4771997;29;20457;-94
2021/12/23 09:21:20;;;;;;;26.20;14.10;;;-0.90;99.90;;;;;;4772951;29;20500;-94
2021/12/23 09:23:46;;;;;;;25.33;15.17;;;-0.70;99.90;;;;;;4777646;29;20204;-95
2021/12/23 09:26:12;;;;;;;26.43;16.50;;;-0.60;99.90;;;;;;4776828;29;20877;-93
2021/12/23 09:29:00;;;;;;;27.17;14.70;;;-0.60;99.90;;;;;;4778028;29;20487;-94
2021/12/23 09:34:11;;;;;;;27.07;16.67;;;-0.60;99.90;;;;;;4786306;29;20911;-95
2021/12/23 09:39:16;;;;;;;29.77;15.43;;;-0.70;99.90;;;;;;4797574;29;20467;-92
2021/12/23 09:41:46;;;;;;;28.00;15.30;;;-0.70;99.90;;;;;;4779683;29;20446;-96
2021/12/23 09:44:58;;;;;;;26.60;15.27;;;-0.70;99.90;;;;;;4790603;29;20578;-96
2021/12/23 12:56:57;;;;;;;22.10;12.73;;;3.70;99.90;;;;;;4788680;29;21197;-95
2021/12/23 12:59:28;;;;;;;19.67;12.60;;;3.70;99.90;;;;;;4773778;29;21762;-92
2021/12/23 13:01:55;;;;;;;18.97;12.03;;;3.70;99.90;;;;;;4754373;29;20570;-92
2021/12/23 13:05:10;;;;;;;16.03;12.07;;;3.70;99.90;;;;;;4784010;29;21139;-93
2021/12/23 13:07:52;;;;;;;;;;;;;;;;;;;;;
2021/12/23 13:10:32;;;;;;;18.67;11.90;;;3.80;99.90;;;;;;4792859;29;20500;-94
2021/12/23 13:13:01;;;;;;;17.83;11.40;;;3.80;99.90;;;;;;4788644;29;20464;-93
2021/12/23 13:15:35;;;;;;;18.13;11.00;;;3.90;99.90;;;;;;4772500;29;20463;-92
2021/12/23 13:18:46;;;;;;;14.77;10.93;;;4.00;99.90;;;;;;4772356;29;20757;-92
2021/12/23 13:21:20;;;;;;;13.73;9.43;;;4.10;99.90;;;;;;4760846;29;20501;-93
2021/12/23 13:23:47;;;;;;;13.93;8.90;;;4.20;99.90;;;;;;4772921;29;20476;-94
2021/12/23 13:26:20;;;;;;;12.30;8.87;;;4.40;99.90;;;;;;4762300;29;20592;-94
2021/12/23 13:28:54;;;;;;;15.80;8.43;;;4.50;99.90;;;;;;4793744;29;20468;-94
2021/12/23 13:31:27;;;;;;;12.83;8.60;;;4.60;99.90;;;;;;4793589;29;20506;-94
2021/12/23 13:34:04;;;;;;;13.83;9.30;;;4.70;99.90;;;;;;4792640;29;20532;-94
2021/12/23 13:36:38;;;;;;;13.53;9.20;;;4.80;99.90;;;;;;4772138;29;20474;-93
2021/12/23 13:39:11;;;;;;;14.60;9.40;;;4.80;99.90;;;;;;4773686;29;20633;-93
2021/12/23 13:41:53;;;;;;;15.60;10.40;;;4.80;99.90;;;;;;4792783;29;20542;-93
2021/12/23 13:44:32;;;;;;;19.30;10.23;;;4.80;99.90;;;;;;4788893;29;20474;-94
2021/12/23 13:47:06;;;;;;;14.30;9.50;;;4.80;99.90;;;;;;4783680;29;20541;-93
2021/12/23 13:49:50;;;;;;;14.70;9.40;;;4.70;99.90;;;;;;4774041;29;21232;-92
2021/12/23 13:52:42;;;;;;;10.63;8.20;;;4.80;99.90;;;;;;4790611;29;20542;-93
2021/12/23 13:55:24;;;;;;;12.90;8.87;;;4.80;99.90;;;;;;4776551;29;20616;-93
2021/12/23 13:57:56;;;;;;;12.53;9.33;;;4.90;99.90;;;;;;4776212;29;20464;-93
2021/12/23 14:00:24;;;;;;;12.43;8.47;;;4.90;99.90;;;;;;4775370;29;20535;-93
2021/12/23 14:02:53;;;;;;;13.80;9.30;;;4.90;99.90;;;;;;4792111;29;20906;-93
2021/12/23 14:05:23;;;;;;;12.97;9.50;;;4.90;99.90;;;;;;4775919;29;20522;-93
2021/12/23 14:07:52;;;;;;;13.80;8.70;;;5.00;99.90;;;;;;4774745;29;20573;-93
2021/12/23 14:10:29;;;;;;;11.33;7.97;;;5.00;99.90;;;;;;4785230;29;20487;-94
2021/12/23 14:13:04;;;;;;;14.10;10.27;;;5.00;99.90;;;;;;4770453;29;20471;-93
2021/12/23 14:15:53;;;;;;;16.93;9.60;;;5.00;99.90;;;;;;4786577;29;20491;-93
2021/12/23 14:27:21;;;;;;;11.10;7.70;;;5.20;99.90;;;;;;4791825;29;20477;-93
2021/12/23 14:29:58;;;;;;;11.07;8.30;;;5.20;99.90;;;;;;4769095;29;21079;-93
2021/12/23 14:32:24;;;;;;;10.40;7.63;;;5.30;99.90;;;;;;4775750;29;21436;-93
2021/12/23 14:34:50;;;;;;;10.33;7.77;;;5.30;99.90;;;;;;4787259;29;20556;-93
2021/12/23 14:37:17;;;;;;;13.07;8.10;;;5.40;99.90;;;;;;4786634;29;20570;-94
2021/12/23 14:39:46;;;;;;;11.13;8.93;;;5.40;99.90;;;;;;4766112;29;21119;-91
2021/12/23 14:42:17;;;;;;;13.27;8.60;;;5.40;99.90;;;;;;4774823;29;20696;-93
2021/12/23 14:44:44;;;;;;;14.33;10.10;;;5.30;99.90;;;;;;4749589;29;20473;-93
2021/12/23 14:47:15;;;;;;;17.80;11.20;;;5.30;99.90;;;;;;4773248;29;20448;-92
2021/12/23 14:52:18;;;;;;;12.30;9.47;;;5.20;99.90;;;;;;4790547;29;21185;-92
2021/12/23 14:55:25;;;;;;;14.10;9.53;;;5.20;99.90;;;;;;4789039;29;20580;-94
2021/12/23 15:01:01;;;;;;;16.23;10.60;;;5.10;99.90;;;;;;4787701;29;20572;-92
2021/12/23 15:08:47;;;;;;;14.17;10.10;;;5.40;99.90;;;;;;4793179;29;20887;-93
2021/12/23 15:11:14;;;;;;;15.33;9.80;;;5.40;99.90;;;;;;4800958;29;20497;-93
2021/12/23 15:13:50;;;;;;;15.40;11.00;;;5.50;99.90;;;;;;4780471;29;20956;-94
2021/12/23 15:17:01;;;;;;;14.63;10.27;;;5.50;99.90;;;;;;4771450;29;20469;-93
2021/12/23 15:19:40;;;;;;;18.70;11.00;;;5.50;99.90;;;;;;4741045;29;22834;-94
2021/12/23 15:22:27;;;;;;;13.43;10.03;;;5.50;99.90;;;;;;4766684;29;20490;-94
2021/12/23 15:25:04;;;;;;;14.90;10.20;;;5.50;99.90;;;;;;4772284;29;20473;-93
2021/12/23 15:27:41;;;;;;;15.30;10.40;;;5.50;99.90;;;;;;4783077;29;20837;-92
2021/12/23 15:30:39;;;;;;;16.30;10.73;;;5.50;99.90;;;;;;4788761;29;20547;-94
2021/12/23 15:33:09;;;;;;;15.57;9.60;;;5.60;99.90;;;;;;4780865;29;20527;-93
2021/12/23 15:35:37;;;;;;;13.90;9.03;;;5.60;99.90;;;;;;4774331;29;20513;-93
2021/12/23 15:38:11;;;;;;;17.77;11.47;;;5.60;99.90;;;;;;4772275;29;21130;-92
2021/12/23 15:40:48;;;;;;;23.90;11.03;;;5.70;99.90;;;;;;4777727;29;21061;-93
2021/12/23 15:43:15;;;;;;;24.57;12.10;;;5.80;99.90;;;;;;4799001;29;20472;-93
2021/12/23 15:45:48;;;;;;;16.60;11.10;;;5.80;99.90;;;;;;4791244;29;20448;-93
2021/12/23 15:48:17;;;;;;;11.90;8.20;;;6.00;99.90;;;;;;4793330;29;20477;-94
2021/12/23 15:50:53;;;;;;;12.33;8.90;;;5.90;99.90;;;;;;4773993;29;20906;-92
2021/12/23 15:53:24;;;;;;;10.10;8.60;;;5.90;99.90;;;;;;4766153;29;20472;-92
2021/12/23 15:55:50;;;;;;;11.20;9.53;;;5.90;99.90;;;;;;4774256;29;21220;-93
2021/12/23 15:58:18;;;;;;;15.00;11.27;;;5.90;99.90;;;;;;4791493;29;20502;-93
2021/12/23 16:00:44;;;;;;;15.20;11.10;;;5.90;99.90;;;;;;4775771;29;23056;-91
2021/12/23 16:03:15;;;;;;;16.47;11.53;;;6.00;99.90;;;;;;4779930;29;20483;-92
2021/12/23 16:08:09;;;;;;;14.80;10.13;;;5.90;99.90;;;;;;4793110;29;20476;-93
2021/12/23 16:10:44;;;;;;;11.30;9.83;;;5.90;99.90;;;;;;4774657;29;22167;-93
2021/12/23 16:13:10;;;;;;;15.20;10.50;;;5.90;99.90;;;;;;4788317;29;20452;-92
2021/12/23 16:15:36;;;;;;;13.50;9.87;;;5.80;99.90;;;;;;4788771;29;20978;-93
2021/12/23 16:18:02;;;;;;;14.03;9.77;;;5.70;99.90;;;;;;4774819;29;20575;-93
2021/12/23 16:20:32;;;;;;;15.23;10.43;;;5.70;99.90;;;;;;4775336;29;20241;-92
2021/12/23 16:26:57;;;;;;;13.80;11.20;;;5.60;99.90;;;;;;4755534;29;21959;-93
2021/12/23 16:30:06;;;;;;;15.30;10.90;;;5.50;99.90;;;;;;4774489;29;20470;-93
2021/12/23 16:35:59;;;;;;;14.40;11.20;;;5.50;99.90;;;;;;4739476;29;20859;-93
2021/12/23 16:38:25;;;;;;;13.53;10.90;;;5.50;99.90;;;;;;4787836;29;20460;-93
2021/12/23 16:40:54;;;;;;;13.67;10.80;;;5.50;99.90;;;;;;4777083;29;20704;-93
2021/12/23 16:43:48;;;;;;;13.93;9.70;;;5.50;99.90;;;;;;4775882;29;20206;-90
2021/12/23 16:46:14;;;;;;;16.17;9.47;;;5.50;99.90;;;;;;4773157;29;20510;-93
2021/12/23 16:48:44;;;;;;;21.40;12.67;;;5.60;99.90;;;;;;4763623;29;20952;-93
2021/12/23 16:51:12;;;;;;;26.57;14.97;;;5.60;99.90;;;;;;4767669;29;20473;-95
2021/12/23 16:53:42;;;;;;;41.10;19.10;;;5.60;99.90;;;;;;4748599;29;20478;-93
2021/12/23 16:56:17;;;;;;;31.10;16.70;;;5.60;99.90;;;;;;4763170;29;20495;-94
2021/12/23 16:58:47;;;;;;;30.47;15.97;;;5.60;99.90;;;;;;4775716;29;21056;-93
2021/12/23 17:01:17;;;;;;;26.40;16.23;;;5.60;99.90;;;;;;4779855;29;20824;-93
2021/12/23 17:03:53;;;;;;;24.40;13.20;;;5.60;99.90;;;;;;4767367;29;20465;-93
2021/12/23 17:06:21;;;;;;;19.93;13.80;;;5.60;99.90;;;;;;4774974;29;20475;-94
2021/12/23 17:08:53;;;;;;;14.23;11.40;;;5.60;99.90;;;;;;4765219;29;20454;-95
2021/12/23 17:11:22;;;;;;;13.23;9.57;;;5.70;99.90;;;;;;4782929;29;20465;-93
2021/12/23 17:13:51;;;;;;;11.77;10.30;;;5.70;99.90;;;;;;4768489;29;20907;-94
2021/12/23 17:16:28;;;;;;;;;;;;;;;;;;;;;
2021/12/23 17:19:03;;;;;;;14.60;11.07;;;5.70;99.90;;;;;;4784796;29;20495;-95
2021/12/23 17:24:27;;;;;;;13.73;9.23;;;5.60;99.90;;;;;;4793958;29;20524;-96
2021/12/23 17:26:55;;;;;;;10.80;9.37;;;5.60;99.90;;;;;;4778799;29;20461;-95
2021/12/23 17:29:22;;;;;;;13.37;9.93;;;5.60;99.90;;;;;;4780169;29;20535;-94
2021/12/23 17:31:49;;;;;;;12.10;9.00;;;5.60;99.90;;;;;;4774250;29;20478;-93
2021/12/23 17:34:28;;;;;;;17.03;11.10;;;5.60;99.90;;;;;;4791126;29;20477;-95
2021/12/23 17:36:56;;;;;;;17.73;13.23;;;5.70;99.90;;;;;;4772190;29;20568;-93
2021/12/23 17:39:52;;;;;;;19.07;14.40;;;5.70;99.90;;;;;;4775939;29;21218;-95
2021/12/23 17:42:18;;;;;;;16.07;13.00;;;5.80;99.90;;;;;;4772923;29;20479;-95
2021/12/23 17:44:44;;;;;;;15.40;11.17;;;5.80;99.90;;;;;;4774913;29;20496;-94
2021/12/23 17:47:24;;;;;;;13.77;11.50;;;5.90;99.90;;;;;;4777310;29;20461;-94
2021/12/23 17:49:52;;;;;;;11.70;8.90;;;5.90;99.90;;;;;;4758796;29;20224;-93
2021/12/23 17:52:18;;;;;;;15.37;10.63;;;5.90;99.90;;;;;;4773773;29;20473;-95
2021/12/23 17:54:48;;;;;;;13.73;11.20;;;6.00;99.90;;;;;;4787759;29;20485;-95
2021/12/23 17:57:22;;;;;;;9.77;8.77;;;6.10;99.90;;;;;;4804668;29;21208;-96
2021/12/23 18:00:06;;;;;;;9.30;7.60;;;6.10;99.90;;;;;;4801612;29;20494;-96
2021/12/23 18:02:43;;;;;;;8.23;7.43;;;6.20;99.90;;;;;;4776405;29;21071;-95
2021/12/23 18:05:46;;;;;;;12.00;7.60;;;6.20;99.90;;;;;;4777340;29;20561;-94
2021/12/23 18:08:12;;;;;;;8.27;6.67;;;6.30;99.90;;;;;;4759294;29;20483;-95
2021/12/23 18:10:39;;;;;;;7.77;6.07;;;6.40;99.90;;;;;;4775507;29;20503;-95
2021/12/23 18:13:19;;;;;;;8.40;6.73;;;6.40;99.90;;;;;;4771823;29;20519;-96
2021/12/23 18:15:54;;;;;;;8.83;5.90;;;6.60;99.90;;;;;;4769042;29;21378;-94
2021/12/23 18:18:35;;;;;;;7.43;5.60;;;6.60;99.90;;;;;;4772253;29;20482;-96
2021/12/23 18:21:30;;;;;;;9.77;6.37;;;6.80;99.90;;;;;;4761533;29;21168;-96
2021/12/23 18:27:05;;;;;;;8.00;6.80;;;6.80;99.90;;;;;;4695512;30;20476;-95
2021/12/23 18:30:19;;;;;;;10.63;7.50;;;6.70;99.90;;;;;;4686287;30;20479;-96
